LIFELN2 EHRD-EHRD
Flight info
| Callsign | LIFELN2 |
|---|---|
| Flight time | 0h 1m |
| Altitude | 1000 |
| Route | VFR |
| Aircraft | EC35/L-V/N |
Departure
| Time | 2026-05-06 12:42 |
|---|---|
| Airport | Rotterdam The Hague Airport (EHRD) |
Arrival
| Time | 2026-05-06 12:44 |
|---|---|
| Airport | Rotterdam The Hague Airport (EHRD) |
| Time | Latitude | Longitude | Altitude | Speed | Heading |
|---|---|---|---|---|---|
| 2026-05-06 12:35 | 51.95121 | 4.44195 | -3 ft | 0 kts | 326° |
| 2026-05-06 12:41 | 51.95126 | 4.44199 | 18 ft | 5 kts | 328° |
| 2026-05-06 12:41 | 51.95177 | 4.44147 | 7 ft | 12 kts | 321° |
| 2026-05-06 12:41 | 51.95211 | 4.44013 | 0 ft | 17 kts | 243° |
| 2026-05-06 12:41 | 51.95161 | 4.43886 | 7 ft | 11 kts | 248° |
| 2026-05-06 12:42 | 51.94949 | 4.43840 | 202 ft | 68 kts | 156° |
| 2026-05-06 12:42 | 51.94374 | 4.44165 | 485 ft | 104 kts | 152° |
| 2026-05-06 12:42 | 51.93592 | 4.44529 | 584 ft | 127 kts | 159° |
| 2026-05-06 12:42 | 51.92694 | 4.44744 | 699 ft | 136 kts | 169° |
| 2026-05-06 12:43 | 51.91732 | 4.45023 | 662 ft | 142 kts | 163° |
| 2026-05-06 12:43 | 51.90807 | 4.45390 | 663 ft | 127 kts | 149° |
| 2026-05-06 12:43 | 51.90167 | 4.46046 | 728 ft | 95 kts | 117° |
| 2026-05-06 12:43 | 51.90043 | 4.46909 | 677 ft | 68 kts | 59° |
| 2026-05-06 12:44 | 51.90308 | 4.47363 | 591 ft | 45 kts | 356° |
| 2026-05-06 12:44 | 51.90541 | 4.47172 | 386 ft | 26 kts | 311° |
| 2026-05-06 12:44 | 51.90624 | 4.47044 | 194 ft | 6 kts | 275° |
| 2026-05-06 12:44 | 51.90635 | 4.47010 | 114 ft | 3 kts | 330° |
| 2026-05-06 12:45 | 51.90633 | 4.47006 | 37 ft | 9 kts | 95° |
| 2026-05-06 12:45 | 51.90635 | 4.46988 | 115 ft | 4 kts | 353° |
| 2026-05-06 12:45 | 51.90648 | 4.46953 | 8 ft | 0 kts | 276° |
| 2026-05-06 12:49 | 51.90647 | 4.46943 | 76 ft | 4 kts | 308° |
| 2026-05-06 12:49 | 51.90757 | 4.46869 | 387 ft | 41 kts | 341° |
| 2026-05-06 12:49 | 51.91237 | 4.46783 | 495 ft | 94 kts | 359° |
| 2026-05-06 12:49 | 51.91965 | 4.46436 | 587 ft | 118 kts | 351° |
| 2026-05-06 12:50 | 51.92688 | 4.46246 | 682 ft | 92 kts | 352° |
| 2026-05-06 12:50 | 51.93370 | 4.45887 | 682 ft | 106 kts | 340° |
| 2026-05-06 12:50 | 51.93925 | 4.45095 | 670 ft | 114 kts | 297° |
| 2026-05-06 12:50 | 51.94275 | 4.44032 | 486 ft | 91 kts | 315° |
| 2026-05-06 12:51 | 51.94754 | 4.43602 | 312 ft | 70 kts | 347° |
| 2026-05-06 12:51 | 51.95084 | 4.43704 | 134 ft | 33 kts | 65° |
| 2026-05-06 12:51 | 51.95145 | 4.43861 | 34 ft | 11 kts | 48° |
| 2026-05-06 12:51 | 51.95197 | 4.43987 | 10 ft | 16 kts | 58° |
| 2026-05-06 12:52 | 51.95147 | 4.44143 | 6 ft | 17 kts | 117° |
| 2026-05-06 12:52 | 51.95111 | 4.44195 | 1 ft | 2 kts | 345° |
| 2026-05-06 12:52 | 51.95118 | 4.44197 | -3 ft | 0 kts | 325° |
| 2026-05-06 13:00 | 51.95120 | 4.44197 | 8 ft | 5 kts | 338° |
| 2026-05-06 13:00 | 51.95189 | 4.44126 | 16 ft | 16 kts | 320° |
| 2026-05-06 13:00 | 51.95195 | 4.43969 | 7 ft | 15 kts | 243° |
| 2026-05-06 13:01 | 51.95156 | 4.43888 | 26 ft | 4 kts | 310° |
| 2026-05-06 13:01 | 51.95183 | 4.43822 | 160 ft | 33 kts | 283° |
| 2026-05-06 13:01 | 51.95030 | 4.43146 | 485 ft | 84 kts | 244° |
| 2026-05-06 13:01 | 51.94651 | 4.42169 | 692 ft | 120 kts | 234° |
| 2026-05-06 13:02 | 51.94146 | 4.40990 | 708 ft | 137 kts | 237° |
| 2026-05-06 13:02 | 51.93644 | 4.39631 | 815 ft | 141 kts | 238° |
| 2026-05-06 13:02 | 51.93111 | 4.38209 | 765 ft | 154 kts | 239° |
| 2026-05-06 13:02 | 51.92587 | 4.36710 | 751 ft | 154 kts | 239° |
| 2026-05-06 13:03 | 51.92174 | 4.35160 | 830 ft | 145 kts | 252° |
| 2026-05-06 13:03 | 51.91880 | 4.33612 | 839 ft | 141 kts | 254° |
| 2026-05-06 13:03 | 51.91683 | 4.32329 | 793 ft | 103 kts | 262° |
| 2026-05-06 13:03 | 51.91711 | 4.31302 | 644 ft | 81 kts | 278° |
| 2026-05-06 13:04 | 51.91548 | 4.30579 | 567 ft | 66 kts | 214° |
| 2026-05-06 13:04 | 51.91198 | 4.30351 | 487 ft | 47 kts | 163° |
| 2026-05-06 13:04 | 51.90923 | 4.30521 | 465 ft | 40 kts | 100° |
| 2026-05-06 13:04 | 51.90965 | 4.31001 | 449 ft | 47 kts | 44° |
| 2026-05-06 13:05 | 51.91220 | 4.31271 | 310 ft | 33 kts | 9° |
| 2026-05-06 13:05 | 51.91310 | 4.31291 | 150 ft | 5 kts | 11° |
| 2026-05-06 13:05 | 51.91341 | 4.31310 | 62 ft | 3 kts | 13° |
| 2026-05-06 13:05 | 51.91354 | 4.31313 | 8 ft | 1 kts | 17° |
| 2026-05-06 13:06 | 51.91356 | 4.31314 | -3 ft | 0 kts | 12° |
| 2026-05-06 13:15 | 51.91355 | 4.31314 | -3 ft | 0 kts | 347° |
| 2026-05-06 13:15 | 51.91365 | 4.31332 | 128 ft | 7 kts | 42° |
| 2026-05-06 13:15 | 51.91285 | 4.31611 | 328 ft | 54 kts | 105° |
| 2026-05-06 13:16 | 51.90968 | 4.32380 | 379 ft | 103 kts | 120° |
| 2026-05-06 13:16 | 51.90457 | 4.33372 | 418 ft | 122 kts | 118° |
| 2026-05-06 13:16 | 51.90082 | 4.34590 | 572 ft | 119 kts | 93° |
| 2026-05-06 13:16 | 51.90151 | 4.35944 | 594 ft | 125 kts | 74° |
| 2026-05-06 13:17 | 51.90327 | 4.37363 | 539 ft | 134 kts | 72° |
| 2026-05-06 13:17 | 51.90396 | 4.38863 | 613 ft | 135 kts | 90° |
| 2026-05-06 13:17 | 51.90248 | 4.40123 | 648 ft | 111 kts | 91° |
| 2026-05-06 13:17 | 51.90103 | 4.41361 | 599 ft | 112 kts | 89° |
| 2026-05-06 13:18 | 51.89979 | 4.42625 | 479 ft | 116 kts | 88° |
| 2026-05-06 13:18 | 51.89884 | 4.43921 | 462 ft | 114 kts | 82° |
| 2026-05-06 13:18 | 51.89844 | 4.45205 | 433 ft | 116 kts | 85° |
| 2026-05-06 13:18 | 51.89884 | 4.46464 | 403 ft | 109 kts | 65° |
| 2026-05-06 13:19 | 51.90227 | 4.47389 | 545 ft | 80 kts | 20° |
| 2026-05-06 13:19 | 51.90721 | 4.47274 | 459 ft | 58 kts | 340° |
| 2026-05-06 13:19 | 51.90948 | 4.47086 | 241 ft | 17 kts | 18° |
| 2026-05-06 13:19 | 51.90980 | 4.47052 | 108 ft | 2 kts | 73° |
| 2026-05-06 13:20 | 51.90984 | 4.47059 | 106 ft | 4 kts | 57° |
| 2026-05-06 13:20 | 51.90992 | 4.47080 | 52 ft | 1 kts | 57° |
| 2026-05-06 13:20 | 51.90992 | 4.47081 | 45 ft | 0 kts | 66° |
| 2026-05-06 13:23 | 51.90990 | 4.47117 | 88 ft | 11 kts | 23° |
| 2026-05-06 13:24 | 51.91275 | 4.47039 | 326 ft | 70 kts | 344° |
| 2026-05-06 13:24 | 51.91842 | 4.46606 | 457 ft | 102 kts | 338° |
| 2026-05-06 13:24 | 51.92549 | 4.46062 | 484 ft | 117 kts | 336° |
| 2026-05-06 13:24 | 51.93270 | 4.45598 | 675 ft | 111 kts | 335° |
| 2026-05-06 13:25 | 51.93881 | 4.44786 | 684 ft | 111 kts | 316° |
| 2026-05-06 13:25 | 51.94411 | 4.43991 | 494 ft | 97 kts | 324° |
| 2026-05-06 13:25 | 51.94745 | 4.43657 | 450 ft | 73 kts | 332° |
| 2026-05-06 13:25 | 51.95064 | 4.43655 | 241 ft | 31 kts | 47° |
| 2026-05-06 13:26 | 51.95130 | 4.43801 | 87 ft | 10 kts | 60° |
| 2026-05-06 13:26 | 51.95163 | 4.43898 | 18 ft | 12 kts | 60° |
| 2026-05-06 13:26 | 51.95206 | 4.44001 | 5 ft | 11 kts | 75° |
| 2026-05-06 13:26 | 51.95168 | 4.44119 | 4 ft | 14 kts | 127° |
| 2026-05-06 13:27 | 51.95113 | 4.44168 | 11 ft | 5 kts | 107° |
| 2026-05-06 13:27 | 51.95111 | 4.44190 | 5 ft | 3 kts | 332° |
| 2026-05-06 13:27 | 51.95116 | 4.44198 | -3 ft | 0 kts | 326° |